sensor_id;sensor_type;location;lat;lon;timestamp;pressure;altitude;pressure_sealevel;temperature;humidity
11912;BME280;6016;41.928;25.556;2023-08-31T00:00:34;98260.13;;;27.14;50.95
11912;BME280;6016;41.928;25.556;2023-08-31T00:03:03;98263.13;;;27.12;51.37
11912;BME280;6016;41.928;25.556;2023-08-31T00:05:32;98272.59;;;27.09;51.89
11912;BME280;6016;41.928;25.556;2023-08-31T00:07:59;98277.19;;;27.09;51.29
11912;BME280;6016;41.928;25.556;2023-08-31T00:10:26;98237.84;;;26.75;52.01
11912;BME280;6016;41.928;25.556;2023-08-31T00:12:55;98267.16;;;27.04;51.94
11912;BME280;6016;41.928;25.556;2023-08-31T00:15:22;98256.31;;;26.89;52.30
11912;BME280;6016;41.928;25.556;2023-08-31T00:17:49;98276.66;;;27.02;52.17
11912;BME280;6016;41.928;25.556;2023-08-31T00:20:16;98226.50;;;26.68;52.15
11912;BME280;6016;41.928;25.556;2023-08-31T00:22:45;98277.16;;;26.93;52.54
11912;BME280;6016;41.928;25.556;2023-08-31T00:25:12;98289.06;;;26.98;52.17
11912;BME280;6016;41.928;25.556;2023-08-31T00:27:39;98243.47;;;26.48;52.07
11912;BME280;6016;41.928;25.556;2023-08-31T00:30:07;98298.28;;;26.91;51.26
11912;BME280;6016;41.928;25.556;2023-08-31T00:32:34;98294.19;;;26.89;51.71
11912;BME280;6016;41.928;25.556;2023-08-31T00:35:01;98182.75;;;26.07;51.94
11912;BME280;6016;41.928;25.556;2023-08-31T00:37:29;98295.50;;;26.81;52.58
11912;BME280;6016;41.928;25.556;2023-08-31T00:39:57;98297.94;;;26.77;52.61
11912;BME280;6016;41.928;25.556;2023-08-31T00:42:25;98190.31;;;26.00;52.20
11912;BME280;6016;41.928;25.556;2023-08-31T00:44:51;98303.03;;;26.63;52.72
11912;BME280;6016;41.928;25.556;2023-08-31T00:47:19;98294.59;;;26.49;52.38
11912;BME280;6016;41.928;25.556;2023-08-31T00:49:47;98265.88;;;26.38;52.40
11912;BME280;6016;41.928;25.556;2023-08-31T00:52:14;98305.19;;;26.56;52.80
11912;BME280;6016;41.928;25.556;2023-08-31T00:54:42;98218.94;;;26.01;52.75
11912;BME280;6016;41.928;25.556;2023-08-31T00:57:10;98296.22;;;26.45;53.01
11912;BME280;6016;41.928;25.556;2023-08-31T00:59:37;98305.97;;;26.51;53.05
11912;BME280;6016;41.928;25.556;2023-08-31T01:02:07;98310.56;;;26.51;53.11
11912;BME280;6016;41.928;25.556;2023-08-31T01:04:47;98326.25;;;26.49;53.34
11912;BME280;6016;41.928;25.556;2023-08-31T01:07:41;98309.69;;;26.30;53.53
11912;BME280;6016;41.928;25.556;2023-08-31T01:10:19;98322.44;;;26.45;53.50
11912;BME280;6016;41.928;25.556;2023-08-31T01:12:54;98320.81;;;26.38;53.90
11912;BME280;6016;41.928;25.556;2023-08-31T01:15:24;98239.38;;;25.81;53.63
11912;BME280;6016;41.928;25.556;2023-08-31T01:17:57;98319.66;;;26.24;54.72
11912;BME280;6016;41.928;25.556;2023-08-31T01:20:30;98322.84;;;26.21;54.79
11912;BME280;6016;41.928;25.556;2023-08-31T01:23:02;98320.16;;;26.21;54.78
11912;BME280;6016;41.928;25.556;2023-08-31T01:25:31;98325.31;;;26.22;55.13
11912;BME280;6016;41.928;25.556;2023-08-31T01:27:59;98332.34;;;26.23;55.00
11912;BME280;6016;41.928;25.556;2023-08-31T01:30:29;98319.34;;;26.20;55.34
11912;BME280;6016;41.928;25.556;2023-08-31T01:32:57;98231.63;;;25.52;55.51
11912;BME280;6016;41.928;25.556;2023-08-31T01:35:25;98278.25;;;25.75;55.38
11912;BME280;6016;41.928;25.556;2023-08-31T01:37:55;98334.44;;;26.16;55.78
11912;BME280;6016;41.928;25.556;2023-08-31T01:40:31;98256.75;;;25.53;55.60
11912;BME280;6016;41.928;25.556;2023-08-31T01:43:01;98348.69;;;26.06;55.65
11912;BME280;6016;41.928;25.556;2023-08-31T01:45:30;98347.06;;;26.05;55.92
11912;BME280;6016;41.928;25.556;2023-08-31T01:47:58;98343.81;;;26.03;56.13
11912;BME280;6016;41.928;25.556;2023-08-31T01:50:25;98359.75;;;25.99;56.06
11912;BME280;6016;41.928;25.556;2023-08-31T01:52:52;98356.25;;;25.99;56.03
11912;BME280;6016;41.928;25.556;2023-08-31T01:55:19;98358.09;;;25.98;56.65
11912;BME280;6016;41.928;25.556;2023-08-31T01:57:48;98350.53;;;25.95;56.65
11912;BME280;6016;41.928;25.556;2023-08-31T02:00:16;98352.00;;;25.76;56.29
11912;BME280;6016;41.928;25.556;2023-08-31T02:02:44;98358.41;;;26.02;56.18
11912;BME280;6016;41.928;25.556;2023-08-31T02:05:11;98326.34;;;25.78;56.44
11912;BME280;6016;41.928;25.556;2023-08-31T02:07:37;98361.63;;;25.99;56.83
11912;BME280;6016;41.928;25.556;2023-08-31T02:10:06;98369.16;;;25.92;56.92
11912;BME280;6016;41.928;25.556;2023-08-31T02:12:33;98375.63;;;25.91;56.83
11912;BME280;6016;41.928;25.556;2023-08-31T02:15:04;98309.06;;;25.47;56.68
11912;BME280;6016;41.928;25.556;2023-08-31T02:17:30;98344.66;;;25.71;56.62
11912;BME280;6016;41.928;25.556;2023-08-31T02:19:57;98354.44;;;25.77;56.57
11912;BME280;6016;41.928;25.556;2023-08-31T02:22:24;98123.19;;;24.30;56.65
11912;BME280;6016;41.928;25.556;2023-08-31T02:24:51;98365.34;;;25.88;56.72
11912;BME280;6016;41.928;25.556;2023-08-31T02:27:18;98345.09;;;25.58;56.57
11912;BME280;6016;41.928;25.556;2023-08-31T02:29:45;98308.81;;;25.48;56.89
11912;BME280;6016;41.928;25.556;2023-08-31T02:32:13;98368.03;;;25.88;56.88
11912;BME280;6016;41.928;25.556;2023-08-31T02:34:40;98284.97;;;25.35;56.76
11912;BME280;6016;41.928;25.556;2023-08-31T02:37:07;98375.28;;;25.82;57.25
11912;BME280;6016;41.928;25.556;2023-08-31T02:39:34;98346.72;;;25.59;56.96
11912;BME280;6016;41.928;25.556;2023-08-31T02:42:00;98377.16;;;25.81;57.07
11912;BME280;6016;41.928;25.556;2023-08-31T02:44:27;98374.22;;;25.83;56.67
11912;BME280;6016;41.928;25.556;2023-08-31T02:46:54;98383.41;;;25.82;56.68
11912;BME280;6016;41.928;25.556;2023-08-31T02:49:22;98381.50;;;25.82;56.40
11912;BME280;6016;41.928;25.556;2023-08-31T02:51:49;98229.38;;;24.79;56.66
11912;BME280;6016;41.928;25.556;2023-08-31T02:54:16;98382.00;;;25.74;56.91
11912;BME280;6016;41.928;25.556;2023-08-31T02:56:44;98384.84;;;25.62;56.64
11912;BME280;6016;41.928;25.556;2023-08-31T02:59:11;98292.44;;;25.00;56.56
11912;BME280;6016;41.928;25.556;2023-08-31T03:01:38;98392.44;;;25.65;56.79
11912;BME280;6016;41.928;25.556;2023-08-31T03:04:05;98396.78;;;25.66;56.21
11912;BME280;6016;41.928;25.556;2023-08-31T03:06:34;98402.69;;;25.63;55.77
11912;BME280;6016;41.928;25.556;2023-08-31T03:09:01;98415.38;;;25.63;55.75
11912;BME280;6016;41.928;25.556;2023-08-31T03:11:28;98340.72;;;25.24;55.89
11912;BME280;6016;41.928;25.556;2023-08-31T03:13:55;98409.97;;;25.63;55.55
11912;BME280;6016;41.928;25.556;2023-08-31T03:16:22;98412.13;;;25.61;55.60
11912;BME280;6016;41.928;25.556;2023-08-31T03:18:49;98349.03;;;25.17;55.59
11912;BME280;6016;41.928;25.556;2023-08-31T03:21:15;98371.81;;;25.26;55.75
11912;BME280;6016;41.928;25.556;2023-08-31T03:23:44;98407.34;;;25.46;55.61
11912;BME280;6016;41.928;25.556;2023-08-31T03:26:10;98416.75;;;25.38;55.59
11912;BME280;6016;41.928;25.556;2023-08-31T03:28:38;98411.84;;;25.35;55.81
11912;BME280;6016;41.928;25.556;2023-08-31T03:31:06;98413.97;;;25.33;56.09
11912;BME280;6016;41.928;25.556;2023-08-31T03:33:33;98414.28;;;25.36;55.41
11912;BME280;6016;41.928;25.556;2023-08-31T03:36:00;98410.78;;;25.36;55.36
11912;BME280;6016;41.928;25.556;2023-08-31T03:38:29;98417.50;;;25.33;56.03
11912;BME280;6016;41.928;25.556;2023-08-31T03:40:57;98355.66;;;24.82;55.92
11912;BME280;6016;41.928;25.556;2023-08-31T03:43:25;98386.13;;;25.05;56.01
11912;BME280;6016;41.928;25.556;2023-08-31T03:45:54;98407.91;;;25.20;55.64
11912;BME280;6016;41.928;25.556;2023-08-31T03:48:22;98384.28;;;25.05;55.16
11912;BME280;6016;41.928;25.556;2023-08-31T03:50:49;98423.97;;;25.32;54.75
11912;BME280;6016;41.928;25.556;2023-08-31T03:53:17;98323.72;;;24.73;54.79
11912;BME280;6016;41.928;25.556;2023-08-31T03:55:44;98421.50;;;25.31;54.76
11912;BME280;6016;41.928;25.556;2023-08-31T03:58:12;98423.91;;;25.27;53.85
11912;BME280;6016;41.928;25.556;2023-08-31T04:00:39;98433.81;;;25.21;54.55
11912;BME280;6016;41.928;25.556;2023-08-31T04:03:05;98391.47;;;24.77;53.96
11912;BME280;6016;41.928;25.556;2023-08-31T04:05:32;98434.00;;;25.14;54.35
11912;BME280;6016;41.928;25.556;2023-08-31T04:08:00;98365.16;;;24.67;53.68
11912;BME280;6016;41.928;25.556;2023-08-31T04:10:28;98310.56;;;24.33;53.71
11912;BME280;6016;41.928;25.556;2023-08-31T04:12:57;98438.09;;;25.17;54.46
11912;BME280;6016;41.928;25.556;2023-08-31T04:15:25;98443.25;;;25.19;53.67
11912;BME280;6016;41.928;25.556;2023-08-31T04:17:52;98440.28;;;25.20;53.76
11912;BME280;6016;41.928;25.556;2023-08-31T04:20:19;98447.06;;;25.23;53.60
11912;BME280;6016;41.928;25.556;2023-08-31T04:22:45;98449.22;;;25.21;53.68
11912;BME280;6016;41.928;25.556;2023-08-31T04:25:12;98454.09;;;25.24;52.65
11912;BME280;6016;41.928;25.556;2023-08-31T04:27:39;98463.03;;;25.24;53.58
11912;BME280;6016;41.928;25.556;2023-08-31T04:30:07;98237.59;;;23.78;53.18
11912;BME280;6016;41.928;25.556;2023-08-31T04:32:35;98456.63;;;25.08;52.95
11912;BME280;6016;41.928;25.556;2023-08-31T04:35:02;98472.13;;;25.18;53.35
11912;BME280;6016;41.928;25.556;2023-08-31T04:37:31;98452.53;;;25.06;52.96
11912;BME280;6016;41.928;25.556;2023-08-31T04:39:58;98473.00;;;25.24;52.89
11912;BME280;6016;41.928;25.556;2023-08-31T04:42:25;98387.44;;;24.57;52.80
11912;BME280;6016;41.928;25.556;2023-08-31T04:44:51;98474.94;;;25.28;53.11
11912;BME280;6016;41.928;25.556;2023-08-31T04:47:18;98399.09;;;24.80;53.03
11912;BME280;6016;41.928;25.556;2023-08-31T04:49:46;98469.78;;;25.27;52.71
11912;BME280;6016;41.928;25.556;2023-08-31T04:52:13;98472.00;;;25.30;52.83
11912;BME280;6016;41.928;25.556;2023-08-31T04:54:40;98477.41;;;25.30;53.47
11912;BME280;6016;41.928;25.556;2023-08-31T04:57:07;98430.63;;;25.02;53.39
11912;BME280;6016;41.928;25.556;2023-08-31T04:59:33;98483.09;;;25.34;53.49
11912;BME280;6016;41.928;25.556;2023-08-31T05:02:00;98477.69;;;25.34;53.80
11912;BME280;6016;41.928;25.556;2023-08-31T05:04:28;98475.78;;;25.29;53.64
11912;BME280;6016;41.928;25.556;2023-08-31T05:06:57;98480.03;;;25.25;53.83
11912;BME280;6016;41.928;25.556;2023-08-31T05:09:24;98487.88;;;25.26;53.86
11912;BME280;6016;41.928;25.556;2023-08-31T05:11:52;98417.56;;;24.71;54.23
11912;BME280;6016;41.928;25.556;2023-08-31T05:14:19;98493.00;;;25.28;54.35
11912;BME280;6016;41.928;25.556;2023-08-31T05:16:45;98436.53;;;24.99;54.47
11912;BME280;6016;41.928;25.556;2023-08-31T05:19:12;98495.59;;;25.40;54.41
11912;BME280;6016;41.928;25.556;2023-08-31T05:21:39;98489.69;;;25.43;53.74
11912;BME280;6016;41.928;25.556;2023-08-31T05:24:07;98357.41;;;24.49;53.26
11912;BME280;6016;41.928;25.556;2023-08-31T05:26:34;98497.03;;;25.48;53.41
11912;BME280;6016;41.928;25.556;2023-08-31T05:29:01;98400.22;;;24.84;54.08
11912;BME280;6016;41.928;25.556;2023-08-31T05:31:30;98490.66;;;25.54;53.16
11912;BME280;6016;41.928;25.556;2023-08-31T05:33:57;98488.53;;;25.56;53.72
11912;BME280;6016;41.928;25.556;2023-08-31T05:36:24;98493.41;;;25.59;53.94
11912;BME280;6016;41.928;25.556;2023-08-31T05:38:51;98498.56;;;25.61;52.88
11912;BME280;6016;41.928;25.556;2023-08-31T05:41:19;98493.22;;;25.66;53.17
11912;BME280;6016;41.928;25.556;2023-08-31T05:43:46;98497.28;;;25.68;53.06
11912;BME280;6016;41.928;25.556;2023-08-31T05:46:13;98427.94;;;25.24;53.88
11912;BME280;6016;41.928;25.556;2023-08-31T05:48:40;98491.03;;;25.63;53.35
11912;BME280;6016;41.928;25.556;2023-08-31T05:51:08;98488.88;;;25.65;53.28
11912;BME280;6016;41.928;25.556;2023-08-31T05:53:34;98497.97;;;25.81;52.59
11912;BME280;6016;41.928;25.556;2023-08-31T05:56:01;98491.53;;;25.87;51.47
11912;BME280;6016;41.928;25.556;2023-08-31T05:58:32;98493.47;;;25.92;51.87
11912;BME280;6016;41.928;25.556;2023-08-31T06:00:59;98489.47;;;25.99;52.28
11912;BME280;6016;41.928;25.556;2023-08-31T06:03:27;98496.25;;;26.02;52.22
11912;BME280;6016;41.928;25.556;2023-08-31T06:05:55;98497.13;;;26.08;50.68
11912;BME280;6016;41.928;25.556;2023-08-31T06:08:22;98496.59;;;26.11;50.20
11912;BME280;6016;41.928;25.556;2023-08-31T06:10:49;98491.75;;;26.13;49.11
11912;BME280;6016;41.928;25.556;2023-08-31T06:13:16;98493.88;;;26.06;49.63
11912;BME280;6016;41.928;25.556;2023-08-31T06:15:45;98499.44;;;26.26;49.48
11912;BME280;6016;41.928;25.556;2023-08-31T06:18:11;98500.31;;;26.32;49.37
11912;BME280;6016;41.928;25.556;2023-08-31T06:20:38;98500.59;;;26.31;47.71
11912;BME280;6016;41.928;25.556;2023-08-31T06:23:05;98316.25;;;25.03;46.29
11912;BME280;6016;41.928;25.556;2023-08-31T06:25:32;98444.84;;;25.97;45.60
11912;BME280;6016;41.928;25.556;2023-08-31T06:27:59;98416.13;;;25.86;45.88
11912;BME280;6016;41.928;25.556;2023-08-31T06:30:26;98518.34;;;26.54;47.53
11912;BME280;6016;41.928;25.556;2023-08-31T06:32:54;98517.00;;;26.57;46.77
11912;BME280;6016;41.928;25.556;2023-08-31T06:35:20;98518.88;;;26.56;45.10
11912;BME280;6016;41.928;25.556;2023-08-31T06:37:47;98439.75;;;26.01;46.67
11912;BME280;6016;41.928;25.556;2023-08-31T06:40:16;98524.34;;;26.61;46.84
11912;BME280;6016;41.928;25.556;2023-08-31T06:42:42;98518.72;;;26.68;44.60
11912;BME280;6016;41.928;25.556;2023-08-31T06:45:10;98522.50;;;26.72;43.76
11912;BME280;6016;41.928;25.556;2023-08-31T06:47:36;98488.31;;;26.56;45.50
11912;BME280;6016;41.928;25.556;2023-08-31T06:50:05;98525.34;;;26.88;45.54
11912;BME280;6016;41.928;25.556;2023-08-31T06:52:33;98532.94;;;26.91;45.66
11912;BME280;6016;41.928;25.556;2023-08-31T06:55:00;98533.53;;;26.98;44.77
11912;BME280;6016;41.928;25.556;2023-08-31T06:57:28;98530.59;;;27.05;45.32
11912;BME280;6016;41.928;25.556;2023-08-31T06:59:55;98533.31;;;27.10;44.09
11912;BME280;6016;41.928;25.556;2023-08-31T07:02:22;98534.72;;;27.23;43.49
11912;BME280;6016;41.928;25.556;2023-08-31T07:04:49;98390.56;;;26.36;43.49
11912;BME280;6016;41.928;25.556;2023-08-31T07:07:19;98545.66;;;27.44;42.20
11912;BME280;6016;41.928;25.556;2023-08-31T07:09:46;98539.72;;;27.52;43.29
11912;BME280;6016;41.928;25.556;2023-08-31T07:12:13;98533.53;;;27.62;42.44
11912;BME280;6016;41.928;25.556;2023-08-31T07:14:40;98497.69;;;27.39;43.79
11912;BME280;6016;41.928;25.556;2023-08-31T07:17:07;98468.41;;;27.26;42.81
11912;BME280;6016;41.928;25.556;2023-08-31T07:19:35;98533.06;;;27.86;42.97
11912;BME280;6016;41.928;25.556;2023-08-31T07:22:02;98520.06;;;27.88;42.59
11912;BME280;6016;41.928;25.556;2023-08-31T07:24:33;98347.00;;;26.96;42.27
11912;BME280;6016;41.928;25.556;2023-08-31T07:27:02;98534.22;;;28.21;41.44
11912;BME280;6016;41.928;25.556;2023-08-31T07:29:28;98535.00;;;28.16;42.07
11912;BME280;6016;41.928;25.556;2023-08-31T07:31:55;98517.91;;;28.11;40.49
11912;BME280;6016;41.928;25.556;2023-08-31T07:34:23;98488.91;;;27.96;39.70
11912;BME280;6016;41.928;25.556;2023-08-31T07:36:50;98542.66;;;28.45;40.52
11912;BME280;6016;41.928;25.556;2023-08-31T07:39:16;98540.75;;;28.51;39.24
11912;BME280;6016;41.928;25.556;2023-08-31T07:41:45;98510.03;;;28.14;40.15
11912;BME280;6016;41.928;25.556;2023-08-31T07:44:12;98536.09;;;28.57;40.23
11912;BME280;6016;41.928;25.556;2023-08-31T07:46:39;98386.69;;;27.70;39.54
11912;BME280;6016;41.928;25.556;2023-08-31T07:49:06;98538.56;;;28.63;39.93
11912;BME280;6016;41.928;25.556;2023-08-31T07:51:32;98554.84;;;28.84;39.75
11912;BME280;6016;41.928;25.556;2023-08-31T07:53:59;98551.00;;;28.96;39.37
11912;BME280;6016;41.928;25.556;2023-08-31T07:56:28;98498.38;;;28.66;38.71
11912;BME280;6016;41.928;25.556;2023-08-31T07:58:56;98520.06;;;29.02;38.11
11912;BME280;6016;41.928;25.556;2023-08-31T08:01:23;98407.28;;;28.39;38.77
11912;BME280;6016;41.928;25.556;2023-08-31T08:03:50;98527.06;;;29.18;38.96
11912;BME280;6016;41.928;25.556;2023-08-31T08:06:17;98551.69;;;29.48;38.95
11912;BME280;6016;41.928;25.556;2023-08-31T08:08:44;98556.03;;;29.44;39.29
11912;BME280;6016;41.928;25.556;2023-08-31T08:11:11;98552.53;;;29.33;38.64
11912;BME280;6016;41.928;25.556;2023-08-31T08:13:37;98489.69;;;28.89;39.86
11912;BME280;6016;41.928;25.556;2023-08-31T08:16:06;98549.28;;;29.31;40.17
11912;BME280;6016;41.928;25.556;2023-08-31T08:18:34;98549.03;;;29.22;38.73
11912;BME280;6016;41.928;25.556;2023-08-31T08:21:01;98492.38;;;28.84;39.14
11912;BME280;6016;41.928;25.556;2023-08-31T08:23:28;98547.66;;;29.30;39.53
11912;BME280;6016;41.928;25.556;2023-08-31T08:25:55;98546.25;;;29.38;38.83
11912;BME280;6016;41.928;25.556;2023-08-31T08:28:24;98538.63;;;29.40;38.84
11912;BME280;6016;41.928;25.556;2023-08-31T08:30:51;98482.75;;;29.23;38.36
11912;BME280;6016;41.928;25.556;2023-08-31T08:33:19;98521.44;;;29.60;39.06
11912;BME280;6016;41.928;25.556;2023-08-31T08:35:46;98536.25;;;29.88;38.99
11912;BME280;6016;41.928;25.556;2023-08-31T08:38:13;98507.69;;;29.86;38.57
11912;BME280;6016;41.928;25.556;2023-08-31T08:40:40;98491.44;;;29.81;36.94
11912;BME280;6016;41.928;25.556;2023-08-31T08:43:07;98465.47;;;29.59;37.63
11912;BME280;6016;41.928;25.556;2023-08-31T08:45:37;98382.81;;;29.20;37.49
11912;BME280;6016;41.928;25.556;2023-08-31T08:48:07;98456.19;;;29.65;37.44
11912;BME280;6016;41.928;25.556;2023-08-31T08:50:36;98526.00;;;30.20;37.20
11912;BME280;6016;41.928;25.556;2023-08-31T08:53:04;98498.59;;;30.11;37.53
11912;BME280;6016;41.928;25.556;2023-08-31T08:55:32;98496.13;;;30.15;36.02
11912;BME280;6016;41.928;25.556;2023-08-31T08:57:59;98560.38;;;30.40;36.53
11912;BME280;6016;41.928;25.556;2023-08-31T09:00:26;98439.63;;;29.96;36.35
11912;BME280;6016;41.928;25.556;2023-08-31T09:02:54;98522.13;;;30.56;35.93
11912;BME280;6016;41.928;25.556;2023-08-31T09:05:21;98534.75;;;30.76;36.45
11912;BME280;6016;41.928;25.556;2023-08-31T09:08:02;98531.13;;;30.86;36.67
11912;BME280;6016;41.928;25.556;2023-08-31T09:10:36;98534.38;;;30.88;36.18
11912;BME280;6016;41.928;25.556;2023-08-31T09:13:05;98509.72;;;30.74;35.15
11912;BME280;6016;41.928;25.556;2023-08-31T09:15:41;98509.72;;;30.74;35.05
11912;BME280;6016;41.928;25.556;2023-08-31T09:18:09;98535.94;;;30.94;35.00
11912;BME280;6016;41.928;25.556;2023-08-31T09:20:43;98420.47;;;30.41;34.78
11912;BME280;6016;41.928;25.556;2023-08-31T09:23:12;98534.09;;;31.14;34.86
11912;BME280;6016;41.928;25.556;2023-08-31T09:25:43;98489.63;;;30.94;35.18
11912;BME280;6016;41.928;25.556;2023-08-31T09:28:10;98526.63;;;31.25;34.79
11912;BME280;6016;41.928;25.556;2023-08-31T09:30:38;98443.78;;;30.77;34.42
11912;BME280;6016;41.928;25.556;2023-08-31T09:33:06;98523.69;;;31.40;34.27
11912;BME280;6016;41.928;25.556;2023-08-31T09:35:34;98516.28;;;31.46;33.89
11912;BME280;6016;41.928;25.556;2023-08-31T09:38:07;98517.75;;;31.57;34.79
11912;BME280;6016;41.928;25.556;2023-08-31T09:40:36;98377.88;;;30.80;33.15
11912;BME280;6016;41.928;25.556;2023-08-31T09:43:03;98513.66;;;31.79;33.26
11912;BME280;6016;41.928;25.556;2023-08-31T09:45:32;98470.47;;;31.48;34.18
11912;BME280;6016;41.928;25.556;2023-08-31T09:47:59;98394.91;;;31.10;32.84
11912;BME280;6016;41.928;25.556;2023-08-31T09:50:28;98505.97;;;32.00;32.98
11912;BME280;6016;41.928;25.556;2023-08-31T09:52:58;98502.94;;;32.21;34.06
11912;BME280;6016;41.928;25.556;2023-08-31T09:55:28;98462.38;;;32.14;35.24
11912;BME280;6016;41.928;25.556;2023-08-31T09:57:58;98500.47;;;32.39;33.46
11912;BME280;6016;41.928;25.556;2023-08-31T10:00:26;98500.41;;;32.44;33.40
11912;BME280;6016;41.928;25.556;2023-08-31T10:02:54;98505.94;;;32.39;33.57
11912;BME280;6016;41.928;25.556;2023-08-31T10:05:23;98500.59;;;32.14;32.51
11912;BME280;6016;41.928;25.556;2023-08-31T10:07:51;98504.28;;;32.05;32.00
11912;BME280;6016;41.928;25.556;2023-08-31T10:10:18;98504.59;;;32.03;33.00
11912;BME280;6016;41.928;25.556;2023-08-31T10:12:48;98499.88;;;32.23;32.67
11912;BME280;6016;41.928;25.556;2023-08-31T10:15:17;98455.47;;;32.03;31.68
11912;BME280;6016;41.928;25.556;2023-08-31T10:17:44;98494.72;;;32.54;32.43
11912;BME280;6016;41.928;25.556;2023-08-31T10:20:13;98499.50;;;32.63;33.33
11912;BME280;6016;41.928;25.556;2023-08-31T10:22:41;98498.50;;;32.59;33.87
11912;BME280;6016;41.928;25.556;2023-08-31T10:25:09;98496.44;;;32.36;32.82
11912;BME280;6016;41.928;25.556;2023-08-31T10:27:38;98391.81;;;31.55;32.70
11912;BME280;6016;41.928;25.556;2023-08-31T10:30:25;98499.19;;;32.50;34.29
11912;BME280;6016;41.928;25.556;2023-08-31T10:33:20;98490.81;;;32.61;32.79
11912;BME280;6016;41.928;25.556;2023-08-31T10:35:49;98496.97;;;32.66;33.11
11912;BME280;6016;41.928;25.556;2023-08-31T10:38:23;98492.53;;;32.70;30.74
11912;BME280;6016;41.928;25.556;2023-08-31T10:41:17;98480.97;;;32.46;32.70
11912;BME280;6016;41.928;25.556;2023-08-31T10:43:46;98493.25;;;32.29;33.84
11912;BME280;6016;41.928;25.556;2023-08-31T10:46:24;98486.44;;;32.26;33.26
11912;BME280;6016;41.928;25.556;2023-08-31T10:48:52;98487.31;;;32.41;33.90
11912;BME280;6016;41.928;25.556;2023-08-31T10:51:22;98420.31;;;32.16;33.01
11912;BME280;6016;41.928;25.556;2023-08-31T10:53:49;98486.84;;;32.67;32.97
11912;BME280;6016;41.928;25.556;2023-08-31T10:56:16;98359.34;;;31.92;33.03
11912;BME280;6016;41.928;25.556;2023-08-31T10:58:57;98479.78;;;32.66;33.06
11912;BME280;6016;41.928;25.556;2023-08-31T11:01:54;98476.44;;;32.55;33.42
11912;BME280;6016;41.928;25.556;2023-08-31T11:04:22;98476.53;;;32.64;33.92
11912;BME280;6016;41.928;25.556;2023-08-31T11:06:49;98463.78;;;32.59;33.26
11912;BME280;6016;41.928;25.556;2023-08-31T11:09:20;98466.63;;;32.82;32.74
11912;BME280;6016;41.928;25.556;2023-08-31T11:11:48;98474.66;;;32.92;31.94
11912;BME280;6016;41.928;25.556;2023-08-31T11:14:15;98477.09;;;32.94;32.53
11912;BME280;6016;41.928;25.556;2023-08-31T11:16:43;98458.84;;;33.03;32.52
11912;BME280;6016;41.928;25.556;2023-08-31T11:19:12;98456.13;;;33.03;31.39
11912;BME280;6016;41.928;25.556;2023-08-31T11:21:40;98462.66;;;33.30;32.03
11912;BME280;6016;41.928;25.556;2023-08-31T11:24:07;98454.16;;;33.32;31.11
11912;BME280;6016;41.928;25.556;2023-08-31T11:26:35;98458.81;;;33.45;32.60
11912;BME280;6016;41.928;25.556;2023-08-31T11:29:06;98448.56;;;33.37;31.63
11912;BME280;6016;41.928;25.556;2023-08-31T11:31:33;98398.66;;;32.80;32.44
11912;BME280;6016;41.928;25.556;2023-08-31T11:34:04;98379.66;;;32.47;33.41
11912;BME280;6016;41.928;25.556;2023-08-31T11:36:33;98444.06;;;32.76;33.74
11912;BME280;6016;41.928;25.556;2023-08-31T11:39:00;98202.50;;;30.95;33.39
11912;BME280;6016;41.928;25.556;2023-08-31T11:41:31;98422.41;;;32.38;33.64
11912;BME280;6016;41.928;25.556;2023-08-31T11:43:59;98447.47;;;32.40;33.31
11912;BME280;6016;41.928;25.556;2023-08-31T11:46:26;98433.41;;;32.33;32.65
11912;BME280;6016;41.928;25.556;2023-08-31T11:48:53;98434.31;;;32.28;33.49
11912;BME280;6016;41.928;25.556;2023-08-31T11:51:21;98426.06;;;32.14;32.05
11912;BME280;6016;41.928;25.556;2023-08-31T11:53:49;98424.97;;;32.15;34.42
11912;BME280;6016;41.928;25.556;2023-08-31T11:56:16;98427.50;;;32.11;33.53
11912;BME280;6016;41.928;25.556;2023-08-31T11:58:43;98434.03;;;32.10;33.83
11912;BME280;6016;41.928;25.556;2023-08-31T12:01:17;98432.44;;;32.09;34.50
11912;BME280;6016;41.928;25.556;2023-08-31T12:03:45;98347.63;;;31.39;34.61
11912;BME280;6016;41.928;25.556;2023-08-31T12:06:15;98380.41;;;31.53;33.10
11912;BME280;6016;41.928;25.556;2023-08-31T12:08:42;98425.91;;;31.91;32.86
11912;BME280;6016;41.928;25.556;2023-08-31T12:11:10;98365.94;;;31.53;33.42
11912;BME280;6016;41.928;25.556;2023-08-31T12:13:37;98380.53;;;31.62;34.12
11912;BME280;6016;41.928;25.556;2023-08-31T12:16:11;98418.41;;;31.83;33.84
11912;BME280;6016;41.928;25.556;2023-08-31T12:18:39;98373.41;;;31.47;33.81
11912;BME280;6016;41.928;25.556;2023-08-31T12:21:06;98420.66;;;31.81;34.51
11912;BME280;6016;41.928;25.556;2023-08-31T12:23:33;98419.28;;;31.78;35.32
11912;BME280;6016;41.928;25.556;2023-08-31T12:26:01;98379.06;;;31.51;34.20
11912;BME280;6016;41.928;25.556;2023-08-31T12:28:29;98387.94;;;31.76;34.63
11912;BME280;6016;41.928;25.556;2023-08-31T12:30:56;98410.88;;;31.94;34.31
11912;BME280;6016;41.928;25.556;2023-08-31T12:33:23;98414.81;;;31.88;34.55
11912;BME280;6016;41.928;25.556;2023-08-31T12:35:50;98419.91;;;32.08;34.64
11912;BME280;6016;41.928;25.556;2023-08-31T12:38:17;98282.03;;;31.16;33.79
11912;BME280;6016;41.928;25.556;2023-08-31T12:40:45;98396.63;;;31.97;33.43
11912;BME280;6016;41.928;25.556;2023-08-31T12:43:11;98333.16;;;31.58;35.24
11912;BME280;6016;41.928;25.556;2023-08-31T12:45:40;98407.69;;;32.06;34.38
11912;BME280;6016;41.928;25.556;2023-08-31T12:48:07;98409.69;;;32.00;34.69
11912;BME280;6016;41.928;25.556;2023-08-31T12:50:34;98414.72;;;31.93;34.88
11912;BME280;6016;41.928;25.556;2023-08-31T12:53:00;98406.31;;;31.89;34.75
11912;BME280;6016;41.928;25.556;2023-08-31T12:55:28;98405.91;;;31.82;34.55
11912;BME280;6016;41.928;25.556;2023-08-31T12:57:56;98397.63;;;31.68;34.11
11912;BME280;6016;41.928;25.556;2023-08-31T13:00:23;98266.50;;;30.98;34.61
11912;BME280;6016;41.928;25.556;2023-08-31T13:02:51;98295.50;;;31.27;34.70
11912;BME280;6016;41.928;25.556;2023-08-31T13:05:18;98324.47;;;31.56;33.91